createdAt,value
2023-11-20T00:02:10.940Z,99710.28
2023-11-20T00:04:38.705Z,99695.13
2023-11-20T00:07:07.016Z,99702.84
2023-11-20T00:09:36.703Z,99706.25
2023-11-20T00:12:04.874Z,99705.53
2023-11-20T00:14:33.443Z,99701.06
2023-11-20T00:17:01.553Z,99702.16
2023-11-20T00:19:30.045Z,99700.84
2023-11-20T00:21:59.339Z,99704.41
2023-11-20T00:24:26.977Z,99710.88
2023-11-20T00:26:54.551Z,99696.03
2023-11-20T00:29:21.990Z,99693.91
2023-11-20T00:31:50.054Z,99696.78
2023-11-20T00:34:18.473Z,99685.41
2023-11-20T00:36:48.333Z,99690.25
2023-11-20T00:39:17.280Z,99683.94
2023-11-20T00:41:45.124Z,99699.81
2023-11-20T00:44:15.740Z,99708.69
2023-11-20T00:46:43.585Z,99697.09
2023-11-20T00:49:11.755Z,99714.13
2023-11-20T00:51:40.762Z,99708.09
2023-11-20T00:54:09.673Z,99705.56
2023-11-20T00:56:37.365Z,99713.03
2023-11-20T00:59:06.915Z,99710.13
2023-11-20T01:01:39.329Z,99716.09
2023-11-20T01:04:08.802Z,99705.03
2023-11-20T01:06:41.538Z,99701.13
2023-11-20T01:09:15.165Z,99705.31
2023-11-20T01:11:46.223Z,99709.78
2023-11-20T01:14:14.428Z,99717.97
2023-11-20T01:16:45.756Z,99715.91
2023-11-20T01:19:13.370Z,99722.13
2023-11-20T01:21:43.577Z,99712.44
2023-11-20T01:24:11.124Z,99718.09
2023-11-20T01:26:38.927Z,99710.22
2023-11-20T01:29:06.678Z,99691.25
2023-11-20T01:31:34.467Z,99699.34
2023-11-20T01:34:01.946Z,99692.78
2023-11-20T01:36:31.103Z,99687.38
2023-11-20T01:38:58.464Z,99677.81
2023-11-20T01:41:30.165Z,99678.53
2023-11-20T01:44:04.168Z,99681.03
2023-11-20T01:46:33.298Z,99690.97
2023-11-20T01:49:03.182Z,99692.13
2023-11-20T01:51:34.392Z,99679.56
2023-11-20T01:54:04.316Z,99680.91
2023-11-20T01:56:34.054Z,99690.47
2023-11-20T01:59:07.971Z,99688.66
2023-11-20T02:01:35.789Z,99675.06
2023-11-20T02:04:05.709Z,99677.25
2023-11-20T02:06:33.977Z,99669.72
2023-11-20T02:09:01.884Z,99677.91
2023-11-20T02:11:30.002Z,99687.34
2023-11-20T02:13:59.425Z,99680.50
2023-11-20T02:16:26.757Z,99669.94
2023-11-20T02:18:55.858Z,99665.19
2023-11-20T02:21:24.366Z,99659.59
2023-11-20T02:23:52.179Z,99651.97
2023-11-20T02:26:49.767Z,99639.88
2023-11-20T02:29:35.137Z,99643.47
2023-11-20T02:32:02.654Z,99646.00
2023-11-20T02:34:33.417Z,99650.81
2023-11-20T02:37:02.981Z,99654.50
2023-11-20T02:39:32.889Z,99654.69
2023-11-20T02:42:01.770Z,99653.50
2023-11-20T02:44:29.783Z,99656.72
2023-11-20T02:46:57.182Z,99665.69
2023-11-20T02:49:24.850Z,99655.06
2023-11-20T02:51:52.199Z,99654.81
2023-11-20T02:54:22.002Z,99653.63
2023-11-20T02:56:49.350Z,99664.97
2023-11-20T02:59:16.920Z,99652.69
2023-11-20T03:01:50.484Z,99649.31
2023-11-20T03:04:20.258Z,99659.59
2023-11-20T03:06:48.218Z,99656.06
2023-11-20T03:09:16.116Z,99647.34
2023-11-20T03:11:43.557Z,99656.72
2023-11-20T03:14:11.721Z,99635.00
2023-11-20T03:16:39.804Z,99632.78
2023-11-20T03:19:08.442Z,99634.41
2023-11-20T03:21:37.611Z,99642.97
2023-11-20T03:24:06.356Z,99644.56
2023-11-20T03:26:33.653Z,99644.44
2023-11-20T03:29:05.212Z,99639.19
2023-11-20T03:31:36.691Z,99647.72
2023-11-20T03:34:05.217Z,99651.22
2023-11-20T03:36:34.058Z,99649.00
2023-11-20T03:39:02.313Z,99642.38
2023-11-20T03:41:30.526Z,99632.88
2023-11-20T03:43:58.534Z,99642.38
2023-11-20T03:46:27.393Z,99637.53
2023-11-20T03:48:56.754Z,99638.00
2023-11-20T03:51:24.610Z,99630.38
2023-11-20T03:53:53.742Z,99648.88
2023-11-20T03:56:20.982Z,99649.94
2023-11-20T03:58:48.541Z,99660.88
2023-11-20T04:01:16.271Z,99665.56
2023-11-20T04:03:44.156Z,99668.94
2023-11-20T04:06:14.991Z,99664.44
2023-11-20T04:08:42.666Z,99663.44
2023-11-20T04:11:11.052Z,99663.53
2023-11-20T04:13:38.983Z,99665.22
2023-11-20T04:16:08.755Z,99657.66
2023-11-20T04:18:36.771Z,99669.34
2023-11-20T04:21:05.122Z,99664.16
2023-11-20T04:23:33.483Z,99678.72
2023-11-20T04:26:01.276Z,99677.81
2023-11-20T04:28:29.507Z,99682.16
2023-11-20T04:30:56.806Z,99676.31
2023-11-20T04:33:25.244Z,99674.47
2023-11-20T04:35:52.620Z,99662.56
2023-11-20T04:38:20.404Z,99656.81
2023-11-20T04:40:49.548Z,99661.88
2023-11-20T04:43:17.304Z,99662.78
2023-11-20T04:45:44.693Z,99646.94
2023-11-20T04:48:12.375Z,99646.56
2023-11-20T04:50:39.588Z,99655.19
2023-11-20T04:53:07.263Z,99648.78
2023-11-20T04:55:34.611Z,99657.66
2023-11-20T04:58:04.123Z,99648.50
2023-11-20T05:00:31.963Z,99652.31
2023-11-20T05:03:01.127Z,99653.31
2023-11-20T05:05:28.841Z,99641.88
2023-11-20T05:07:56.709Z,99640.47
2023-11-20T05:10:24.067Z,99642.53
2023-11-20T05:12:52.419Z,99642.00
2023-11-20T05:15:22.877Z,99648.47
2023-11-20T05:17:51.162Z,99649.31
2023-11-20T05:20:18.708Z,99652.19
2023-11-20T05:22:47.010Z,99662.47
2023-11-20T05:25:15.356Z,99673.09
2023-11-20T05:27:45.566Z,99663.66
2023-11-20T05:30:14.117Z,99660.66
2023-11-20T05:32:41.827Z,99658.16
2023-11-20T05:35:10.760Z,99655.78
2023-11-20T05:37:41.212Z,99659.19
2023-11-20T05:40:10.824Z,99673.56
2023-11-20T05:42:39.572Z,99677.75
2023-11-20T05:45:08.065Z,99676.34
2023-11-20T05:47:35.740Z,99690.53
2023-11-20T05:50:04.510Z,99683.28
2023-11-20T05:52:33.789Z,99702.00
2023-11-20T05:55:01.558Z,99688.38
2023-11-20T05:57:29.477Z,99685.34
2023-11-20T05:59:56.934Z,99683.41
2023-11-20T06:02:24.786Z,99689.00
2023-11-20T06:04:52.305Z,99699.09
2023-11-20T06:07:20.606Z,99711.53
2023-11-20T06:09:48.797Z,99711.34
2023-11-20T06:12:17.453Z,99713.47
2023-11-20T06:14:44.859Z,99716.66
2023-11-20T06:17:12.603Z,99727.59
2023-11-20T06:19:41.366Z,99731.13
2023-11-20T06:22:10.700Z,99723.19
2023-11-20T06:24:38.934Z,99742.22
2023-11-20T06:27:09.465Z,99742.97
2023-11-20T06:29:37.884Z,99728.13
2023-11-20T06:32:08.504Z,99717.84
2023-11-20T06:34:37.123Z,99712.06
2023-11-20T06:37:05.824Z,99717.09
2023-11-20T06:39:36.134Z,99728.84
2023-11-20T06:42:06.689Z,99722.91
2023-11-20T06:44:34.168Z,99718.56
2023-11-20T06:47:02.721Z,99714.69
2023-11-20T06:49:30.197Z,99725.91
2023-11-20T06:52:00.474Z,99732.78
2023-11-20T06:54:29.947Z,99728.03
2023-11-20T06:56:58.307Z,99734.28
2023-11-20T06:59:29.321Z,99722.66
2023-11-20T07:01:59.755Z,99722.69
2023-11-20T07:04:29.181Z,99715.88
2023-11-20T07:06:56.988Z,99719.03
2023-11-20T07:09:30.494Z,99725.06
2023-11-20T07:11:59.424Z,99716.22
2023-11-20T07:14:27.621Z,99703.34
2023-11-20T07:16:56.732Z,99701.22
2023-11-20T07:19:24.408Z,99706.56
2023-11-20T07:21:53.598Z,99725.91
2023-11-20T07:24:22.894Z,99724.13
2023-11-20T07:26:53.071Z,99720.38
2023-11-20T07:29:25.809Z,99718.97
2023-11-20T07:31:53.591Z,99713.97
2023-11-20T07:34:22.789Z,99711.56
2023-11-20T07:36:57.158Z,99729.53
2023-11-20T07:39:27.304Z,99731.63
2023-11-20T07:41:55.630Z,99727.66
2023-11-20T07:44:23.172Z,99718.63
2023-11-20T07:46:55.824Z,99718.47
2023-11-20T07:49:25.260Z,99712.81
2023-11-20T07:52:02.863Z,99722.81
2023-11-20T07:54:30.258Z,99716.16
2023-11-20T07:56:58.260Z,99716.25
2023-11-20T07:59:28.326Z,99721.19
2023-11-20T08:01:56.809Z,99714.31
2023-11-20T08:04:25.215Z,99704.88
2023-11-20T08:06:53.681Z,99706.69
2023-11-20T08:09:22.546Z,99703.59
2023-11-20T08:11:53.734Z,99700.19
2023-11-20T08:14:28.618Z,99699.34
2023-11-20T08:17:06.514Z,99684.53
2023-11-20T08:19:38.577Z,99680.34
2023-11-20T08:22:09.369Z,99692.44
2023-11-20T08:24:42.135Z,99704.69
2023-11-20T08:27:20.715Z,99706.78
2023-11-20T08:29:52.808Z,99703.63
2023-11-20T08:32:45.510Z,99708.63
2023-11-20T08:35:16.500Z,99715.34
2023-11-20T08:38:14.675Z,99738.38
2023-11-20T08:40:48.000Z,99726.78
2023-11-20T08:43:17.030Z,99721.28
2023-11-20T08:45:45.454Z,99728.88
2023-11-20T08:48:13.355Z,99732.34
2023-11-20T08:50:40.856Z,99748.56
2023-11-20T08:53:09.131Z,99744.81
2023-11-20T08:55:38.983Z,99744.41
2023-11-20T08:58:12.351Z,99751.13
2023-11-20T09:00:43.257Z,99742.22
2023-11-20T09:03:15.749Z,99751.38
2023-11-20T09:05:44.545Z,99741.50
2023-11-20T09:08:12.192Z,99747.38
2023-11-20T09:10:40.153Z,99733.69
2023-11-20T09:13:11.631Z,99731.38
2023-11-20T09:15:39.322Z,99730.00
2023-11-20T09:18:07.206Z,99726.66
2023-11-20T09:20:37.303Z,99718.19
2023-11-20T09:23:05.181Z,99718.00
2023-11-20T09:25:32.482Z,99721.31
2023-11-20T09:28:04.373Z,99723.81
2023-11-20T09:30:32.064Z,99710.53
2023-11-20T09:33:01.817Z,99700.50
2023-11-20T09:35:29.443Z,99698.66
2023-11-20T09:37:57.073Z,99703.63
2023-11-20T09:40:31.554Z,99704.25
2023-11-20T09:43:01.369Z,99710.47
2023-11-20T09:45:32.445Z,99700.59
2023-11-20T09:48:05.018Z,99696.59
2023-11-20T09:50:32.423Z,99689.31
2023-11-20T09:53:00.555Z,99691.44
2023-11-20T09:55:28.089Z,99686.00
2023-11-20T09:57:56.258Z,99675.75
2023-11-20T10:00:25.948Z,99675.34
2023-11-20T10:02:55.577Z,99678.25
2023-11-20T10:05:33.972Z,99675.94
2023-11-20T10:08:05.082Z,99683.69
2023-11-20T10:10:36.216Z,99675.91
2023-11-20T10:13:10.101Z,99669.53
2023-11-20T10:15:39.829Z,99670.66
2023-11-20T10:18:07.559Z,99664.06
2023-11-20T10:20:59.939Z,99655.59
2023-11-20T10:23:33.662Z,99653.19
2023-11-20T10:26:06.382Z,99649.88
2023-11-20T10:28:45.211Z,99643.94
2023-11-20T10:31:12.759Z,99638.72
2023-11-20T10:33:42.248Z,99640.53
2023-11-20T10:36:17.300Z,99644.09
2023-11-20T10:38:45.998Z,99638.53
2023-11-20T10:41:19.767Z,99645.84
2023-11-20T10:43:49.320Z,99645.63
2023-11-20T10:46:23.551Z,99638.31
2023-11-20T10:49:19.530Z,99629.97
2023-11-20T10:52:00.372Z,99638.44
2023-11-20T10:54:30.708Z,99629.13
2023-11-20T10:57:12.647Z,99632.72
2023-11-20T10:59:54.200Z,99628.38
2023-11-20T11:02:29.122Z,99632.56
2023-11-20T11:05:08.880Z,99616.34
2023-11-20T11:07:41.925Z,99625.41
2023-11-20T11:10:12.767Z,99620.00
2023-11-20T11:12:44.940Z,99619.06
2023-11-20T11:15:14.446Z,99612.41
2023-11-20T11:18:13.825Z,99620.97
2023-11-20T11:20:57.339Z,99619.38
2023-11-20T11:23:41.539Z,99617.25
2023-11-20T11:26:53.549Z,99606.66
2023-11-20T11:29:26.984Z,99612.09
2023-11-20T11:32:26.622Z,99598.53
2023-11-20T11:35:28.478Z,99599.53
2023-11-20T11:38:24.778Z,99593.72
2023-11-20T11:41:09.423Z,99586.75
2023-11-20T11:43:47.430Z,99589.16
2023-11-20T11:46:15.270Z,99589.09
2023-11-20T11:48:43.953Z,99592.53
2023-11-20T11:51:25.872Z,99592.50
2023-11-20T11:54:21.392Z,99590.16
2023-11-20T11:57:01.477Z,99585.81
2023-11-20T11:59:44.678Z,99580.19
2023-11-20T12:02:43.119Z,99586.16
2023-11-20T12:05:17.345Z,99575.50
2023-11-20T12:08:08.413Z,99579.72
2023-11-20T12:10:57.290Z,99565.41
2023-11-20T12:13:25.301Z,99563.16
2023-11-20T12:16:04.777Z,99556.63
2023-11-20T12:18:37.168Z,99557.94
2023-11-20T12:21:15.010Z,99557.72
2023-11-20T12:23:52.212Z,99558.84
2023-11-20T12:26:23.267Z,99551.66
2023-11-20T12:28:54.188Z,99550.72
2023-11-20T12:31:22.377Z,99551.28
2023-11-20T12:33:51.842Z,99551.66
2023-11-20T12:36:26.205Z,99543.81
2023-11-20T12:38:57.125Z,99543.75
2023-11-20T12:41:29.608Z,99530.69
2023-11-20T12:43:58.515Z,99523.78
2023-11-20T12:46:29.490Z,99529.59
2023-11-20T12:48:57.277Z,99521.44
2023-11-20T12:51:26.084Z,99540.84
2023-11-20T12:53:53.513Z,99526.81
2023-11-20T12:56:25.222Z,99520.06
2023-11-20T12:58:54.461Z,99523.25
2023-11-20T13:01:23.050Z,99510.09
2023-11-20T13:03:54.544Z,99520.41
2023-11-20T13:06:25.654Z,99513.31
2023-11-20T13:08:53.723Z,99514.66
2023-11-20T13:11:24.329Z,99520.41
2023-11-20T13:13:56.684Z,99513.56
2023-11-20T13:16:26.345Z,99513.19
2023-11-20T13:18:55.179Z,99510.66
2023-11-20T13:21:27.058Z,99508.59
2023-11-20T13:24:12.188Z,99507.06
2023-11-20T13:26:49.298Z,99508.56
2023-11-20T13:29:19.131Z,99506.16
2023-11-20T13:31:47.851Z,99513.31
2023-11-20T13:34:15.152Z,99514.22
2023-11-20T13:36:44.979Z,99514.06
2023-11-20T13:39:21.058Z,99508.03
2023-11-20T13:41:49.211Z,99508.44
2023-11-20T13:44:16.774Z,99509.69
2023-11-20T13:46:46.597Z,99503.78
2023-11-20T13:49:15.747Z,99507.53
2023-11-20T13:51:44.223Z,99500.97
2023-11-20T13:54:11.727Z,99508.91
2023-11-20T13:56:39.798Z,99507.78
2023-11-20T13:59:09.896Z,99506.66
2023-11-20T14:01:40.686Z,99512.28
2023-11-20T14:04:11.416Z,99511.81
2023-11-20T14:06:40.657Z,99509.00
2023-11-20T14:09:09.121Z,99509.16
2023-11-20T14:11:38.350Z,99513.31
2023-11-20T14:14:07.404Z,99511.66
2023-11-20T14:16:35.629Z,99516.53
2023-11-20T14:19:11.491Z,99509.66
2023-11-20T14:21:44.842Z,99514.63
2023-11-20T14:24:27.192Z,99511.69
2023-11-20T14:26:57.272Z,99511.41
2023-11-20T14:29:28.956Z,99512.84
2023-11-20T14:32:01.169Z,99513.44
2023-11-20T14:34:30.530Z,99514.78
2023-11-20T14:37:06.710Z,99505.75
2023-11-20T14:39:45.937Z,99507.84
2023-11-20T14:42:23.192Z,99517.72
2023-11-20T14:44:55.321Z,99513.25
2023-11-20T14:47:24.794Z,99511.31
2023-11-20T14:49:53.035Z,99506.41
2023-11-20T14:52:20.717Z,99511.41
2023-11-20T14:54:48.034Z,99515.25
2023-11-20T14:57:16.027Z,99503.72
2023-11-20T14:59:43.393Z,99495.25
2023-11-20T15:02:11.218Z,99495.03
2023-11-20T15:04:45.353Z,99502.25
2023-11-20T15:07:19.895Z,99501.03
2023-11-20T15:09:52.901Z,99487.38
2023-11-20T15:12:30.038Z,99491.72
2023-11-20T15:15:01.927Z,99477.22
2023-11-20T15:17:35.334Z,99482.66
2023-11-20T15:20:30.079Z,99478.09
2023-11-20T15:23:01.570Z,99472.31
2023-11-20T15:25:30.789Z,99470.88
2023-11-20T15:27:58.720Z,99471.91
2023-11-20T15:30:26.078Z,99470.22
2023-11-20T15:32:55.539Z,99469.69
2023-11-20T15:35:24.476Z,99473.88
2023-11-20T15:37:56.742Z,99481.31
2023-11-20T15:40:25.599Z,99478.44
2023-11-20T15:42:53.387Z,99479.34
2023-11-20T15:45:20.887Z,99480.63
2023-11-20T15:47:48.664Z,99482.53
2023-11-20T15:50:16.050Z,99481.31
2023-11-20T15:52:44.319Z,99476.75
2023-11-20T15:55:19.239Z,99495.47
2023-11-20T15:57:47.270Z,99483.81
2023-11-20T16:00:16.179Z,99488.84
2023-11-20T16:02:44.861Z,99495.88
2023-11-20T16:05:12.487Z,99490.66
2023-11-20T16:07:40.476Z,99485.91
2023-11-20T16:10:08.324Z,99489.22
2023-11-20T16:12:36.233Z,99483.84
2023-11-20T16:15:05.643Z,99491.72
2023-11-20T16:17:35.817Z,99491.13
2023-11-20T16:20:06.394Z,99494.44
2023-11-20T16:22:34.640Z,99496.50
2023-11-20T16:25:02.991Z,99499.41
2023-11-20T16:27:30.629Z,99495.66
2023-11-20T16:30:00.941Z,99495.44
2023-11-20T16:32:28.728Z,99492.72
2023-11-20T16:34:56.106Z,99493.38
2023-11-20T16:37:23.918Z,99492.81
2023-11-20T16:39:51.226Z,99492.44
2023-11-20T16:42:18.968Z,99494.91
2023-11-20T16:44:46.497Z,99491.38
2023-11-20T16:47:14.113Z,99492.00
2023-11-20T16:49:43.252Z,99484.34
2023-11-20T16:52:13.843Z,99493.31
2023-11-20T16:54:42.712Z,99488.72
2023-11-20T16:57:12.188Z,99492.72
2023-11-20T16:59:41.008Z,99491.06
2023-11-20T17:02:11.540Z,99499.78
2023-11-20T17:04:44.976Z,99499.91
2023-11-20T17:07:12.711Z,99504.66
2023-11-20T17:09:43.027Z,99488.63
2023-11-20T17:12:11.190Z,99485.72
2023-11-20T17:14:40.268Z,99492.63
2023-11-20T17:19:37.420Z,99485.25
2023-11-20T17:22:07.248Z,99499.56
2023-11-20T17:24:34.728Z,99498.66
2023-11-20T17:27:02.384Z,99489.47
2023-11-20T17:29:35.746Z,99497.50
2023-11-20T17:32:04.267Z,99493.34
2023-11-20T17:34:31.696Z,99481.66
2023-11-20T17:36:59.340Z,99492.09
2023-11-20T17:39:27.137Z,99487.47
2023-11-20T17:41:55.018Z,99487.63
2023-11-20T17:44:22.523Z,99490.81
2023-11-20T17:46:50.219Z,99490.69
2023-11-20T17:49:17.923Z,99492.34
2023-11-20T17:51:47.806Z,99483.44
2023-11-20T17:54:16.345Z,99484.47
2023-11-20T17:56:49.931Z,99492.97
2023-11-20T17:59:18.812Z,99484.25
2023-11-20T18:01:49.831Z,99484.84
2023-11-20T18:04:20.639Z,99482.53
2023-11-20T18:06:55.560Z,99480.25
2023-11-20T18:09:23.124Z,99474.84
2023-11-20T18:11:51.805Z,99471.50
2023-11-20T18:14:20.166Z,99469.03
2023-11-20T18:16:48.883Z,99469.03
2023-11-20T18:19:16.221Z,99464.44
2023-11-20T18:21:52.321Z,99464.81
2023-11-20T18:27:13.638Z,99456.47
2023-11-20T18:29:42.442Z,99457.50
2023-11-20T18:32:10.938Z,99449.59
2023-11-20T18:34:40.546Z,99462.22
2023-11-20T18:37:09.542Z,99465.47
2023-11-20T18:39:41.522Z,99459.38
2023-11-20T18:42:11.088Z,99460.84
2023-11-20T18:44:40.627Z,99455.78
2023-11-20T18:47:11.659Z,99454.81
2023-11-20T18:49:40.479Z,99455.13
2023-11-20T18:52:09.957Z,99457.19
2023-11-20T18:54:40.628Z,99457.13
2023-11-20T18:57:13.727Z,99455.06
2023-11-20T18:59:42.086Z,99446.81
2023-11-20T19:02:13.206Z,99449.31
2023-11-20T19:04:41.037Z,99446.31
2023-11-20T19:07:08.852Z,99450.47
2023-11-20T19:09:40.298Z,99442.41
2023-11-20T19:12:08.406Z,99448.81
2023-11-20T19:14:35.656Z,99446.53
2023-11-20T19:17:06.142Z,99450.47
2023-11-20T19:19:34.858Z,99443.81
2023-11-20T19:22:02.696Z,99454.16
2023-11-20T19:24:31.337Z,99447.09
2023-11-20T19:26:59.511Z,99453.84
2023-11-20T19:29:28.302Z,99449.63
2023-11-20T19:31:56.438Z,99450.63
2023-11-20T19:34:23.790Z,99445.88
2023-11-20T19:36:52.522Z,99446.19
2023-11-20T19:39:20.755Z,99446.28
2023-11-20T19:41:48.429Z,99440.38
2023-11-20T19:44:16.625Z,99443.34
2023-11-20T19:46:47.128Z,99451.41
2023-11-20T19:49:14.506Z,99449.31
2023-11-20T19:51:43.598Z,99449.56
2023-11-20T19:54:11.077Z,99458.56
2023-11-20T19:56:42.580Z,99449.31
2023-11-20T19:59:09.888Z,99442.94
2023-11-20T20:01:38.805Z,99445.31
2023-11-20T20:04:09.839Z,99446.56
2023-11-20T20:06:40.085Z,99439.69
2023-11-20T20:09:10.267Z,99427.44
2023-11-20T20:11:38.960Z,99438.19
2023-11-20T20:14:06.579Z,99440.25
2023-11-20T20:16:34.494Z,99439.47
2023-11-20T20:19:05.139Z,99433.06
2023-11-20T20:21:37.539Z,99429.53
2023-11-20T20:24:06.974Z,99422.47
2023-11-20T20:26:40.269Z,99429.25
2023-11-20T20:29:12.066Z,99419.28
2023-11-20T20:31:44.161Z,99420.34
2023-11-20T20:34:12.635Z,99423.69
2023-11-20T20:36:42.908Z,99425.94
2023-11-20T20:39:17.180Z,99428.00
2023-11-20T20:41:47.448Z,99425.09
2023-11-20T20:44:19.623Z,99429.03
2023-11-20T20:46:49.355Z,99436.13
2023-11-20T20:49:17.842Z,99433.41
2023-11-20T20:51:45.497Z,99436.16
2023-11-20T20:54:15.192Z,99440.31
2023-11-20T20:56:45.855Z,99434.53
2023-11-20T20:59:14.478Z,99434.13
2023-11-20T21:01:43.339Z,99435.81
2023-11-20T21:04:12.819Z,99432.50
2023-11-20T21:06:40.805Z,99438.13
2023-11-20T21:09:11.630Z,99436.25
2023-11-20T21:11:41.450Z,99437.13
2023-11-20T21:14:10.070Z,99424.44
2023-11-20T21:16:38.127Z,99433.13
2023-11-20T21:19:08.331Z,99432.69
2023-11-20T21:21:38.788Z,99433.09
2023-11-20T21:24:11.902Z,99429.75
2023-11-20T21:26:43.292Z,99434.53
2023-11-20T21:29:12.004Z,99425.63
2023-11-20T21:31:49.582Z,99430.38
2023-11-20T21:34:18.681Z,99425.56
2023-11-20T21:36:47.335Z,99428.25
2023-11-20T21:39:20.116Z,99428.47
2023-11-20T21:41:51.872Z,99419.56
2023-11-20T21:44:22.117Z,99422.63
2023-11-20T21:46:50.633Z,99411.66
2023-11-20T21:49:17.963Z,99418.47
2023-11-20T21:51:46.337Z,99419.91
2023-11-20T21:54:13.698Z,99411.16
2023-11-20T21:56:41.724Z,99399.97
2023-11-20T21:59:11.789Z,99407.53
2023-11-20T22:01:39.685Z,99412.94
2023-11-20T22:04:08.808Z,99416.88
2023-11-20T22:06:40.824Z,99416.66
2023-11-20T22:09:08.392Z,99411.69
2023-11-20T22:11:37.577Z,99416.25
2023-11-20T22:14:04.955Z,99410.88
2023-11-20T22:16:33.968Z,99412.75
2023-11-20T22:19:03.712Z,99403.59
2023-11-20T22:21:31.614Z,99405.47
2023-11-20T22:24:02.660Z,99414.63
2023-11-20T22:26:33.811Z,99412.50
2023-11-20T22:29:05.402Z,99399.25
2023-11-20T22:31:34.664Z,99404.63
2023-11-20T22:34:02.873Z,99405.22
2023-11-20T22:36:33.518Z,99400.06
2023-11-20T22:39:02.481Z,99402.75
2023-11-20T22:41:33.115Z,99401.31
2023-11-20T22:44:00.613Z,99395.31
2023-11-20T22:46:32.507Z,99393.88
2023-11-20T22:49:03.212Z,99396.75
2023-11-20T22:51:37.219Z,99389.38
2023-11-20T22:54:07.377Z,99387.09
2023-11-20T22:56:40.703Z,99385.00
2023-11-20T22:59:10.402Z,99380.19
2023-11-20T23:01:44.784Z,99377.06
2023-11-20T23:04:15.396Z,99373.25
2023-11-20T23:06:46.212Z,99374.41
2023-11-20T23:09:20.546Z,99371.25
2023-11-20T23:11:52.448Z,99368.16
2023-11-20T23:14:20.793Z,99363.41
2023-11-20T23:16:49.505Z,99365.72
2023-11-20T23:19:18.260Z,99371.97
2023-11-20T23:21:46.238Z,99371.97
2023-11-20T23:24:15.855Z,99366.31
2023-11-20T23:26:45.660Z,99366.94
2023-11-20T23:29:15.016Z,99370.03
2023-11-20T23:31:45.999Z,99370.63
2023-11-20T23:34:14.688Z,99369.13
2023-11-20T23:36:42.332Z,99378.63
2023-11-20T23:39:11.007Z,99372.38
2023-11-20T23:41:43.134Z,99370.50
2023-11-20T23:44:13.156Z,99384.75
2023-11-20T23:46:42.380Z,99377.03
2023-11-20T23:49:09.761Z,99377.63
2023-11-20T23:51:37.293Z,99373.19
2023-11-20T23:54:04.748Z,99367.81
2023-11-20T23:56:32.416Z,99374.41
2023-11-20T23:59:00.032Z,99372.31
